createdAt,value
2023-05-08T00:02:32.289Z,2.00
2023-05-08T00:07:34.268Z,2.10
2023-05-08T00:12:36.561Z,1.90
2023-05-08T00:17:38.358Z,2.00
2023-05-08T00:22:40.274Z,2.00
2023-05-08T00:27:42.042Z,2.10
2023-05-08T00:32:43.804Z,1.90
2023-05-08T00:37:45.782Z,1.90
2023-05-08T00:42:47.596Z,1.90
2023-05-08T00:47:51.055Z,1.70
2023-05-08T00:52:53.462Z,1.80
2023-05-08T00:57:55.345Z,1.80
2023-05-08T01:02:57.548Z,1.80
2023-05-08T01:07:59.409Z,1.80
2023-05-08T01:13:18.584Z,1.70
2023-05-08T01:18:32.326Z,1.60
2023-05-08T01:23:39.879Z,1.60
2023-05-08T01:29:06.524Z,1.50
2023-05-08T01:34:15.035Z,1.50
2023-05-08T01:39:31.155Z,1.40
2023-05-08T01:44:43.921Z,1.40
2023-05-08T01:49:49.271Z,1.20
2023-05-08T01:54:59.625Z,1.10
2023-05-08T02:00:03.810Z,1.10
2023-05-08T02:05:07.487Z,1.00
2023-05-08T02:10:11.722Z,1.00
2023-05-08T02:15:16.256Z,1.00
2023-05-08T02:20:19.728Z,0.90
2023-05-08T02:25:22.637Z,0.90
2023-05-08T02:30:26.465Z,0.80
2023-05-08T02:35:30.406Z,0.70
2023-05-08T02:40:33.016Z,0.70
2023-05-08T02:45:45.688Z,0.70
2023-05-08T02:51:21.300Z,0.80
2023-05-08T02:56:36.186Z,0.80
2023-05-08T03:01:57.686Z,0.80
2023-05-08T03:07:01.060Z,0.90
2023-05-08T03:12:07.949Z,1.00
2023-05-08T03:17:12.502Z,1.10
2023-05-08T03:22:16.400Z,1.50
2023-05-08T03:27:20.427Z,2.50
2023-05-08T03:32:24.530Z,3.40
2023-05-08T03:37:28.822Z,4.30
2023-05-08T03:42:31.534Z,4.60
2023-05-08T03:47:35.917Z,5.40
2023-05-08T03:52:38.531Z,6.80
2023-05-08T03:58:08.033Z,7.80
2023-05-08T04:03:21.645Z,8.10
2023-05-08T04:08:30.073Z,8.20
2023-05-08T04:13:37.009Z,9.60
2023-05-08T04:18:45.721Z,10.80
2023-05-08T04:23:50.014Z,11.40
2023-05-08T04:28:52.372Z,10.40
2023-05-08T04:33:54.956Z,9.40
2023-05-08T04:38:57.722Z,8.20
2023-05-08T04:44:00.708Z,7.40
2023-05-08T04:49:02.504Z,7.30
2023-05-08T04:54:04.340Z,8.80
2023-05-08T04:59:06.784Z,9.20
2023-05-08T05:04:08.644Z,9.20
2023-05-08T05:09:11.794Z,11.00
2023-05-08T05:14:13.579Z,11.10
2023-05-08T05:19:15.518Z,10.70
2023-05-08T05:24:17.366Z,10.90
2023-05-08T05:29:19.192Z,10.60
2023-05-08T05:34:21.728Z,11.80
2023-05-08T05:39:23.506Z,12.50
2023-05-08T05:44:25.642Z,14.80
2023-05-08T05:49:27.385Z,19.00
2023-05-08T05:54:29.383Z,21.90
2023-05-08T05:59:31.659Z,21.80
2023-05-08T06:04:33.616Z,20.30
2023-05-08T06:09:35.385Z,17.80
2023-05-08T06:14:37.195Z,16.00
2023-05-08T06:19:38.971Z,14.30
2023-05-08T06:24:40.657Z,13.60
2023-05-08T06:29:42.368Z,13.10
2023-05-08T06:34:44.326Z,13.90
2023-05-08T06:39:46.743Z,19.20
2023-05-08T06:44:50.684Z,23.20
2023-05-08T06:49:53.953Z,26.50
2023-05-08T06:54:55.689Z,28.10
2023-05-08T06:59:57.453Z,29.20
2023-05-08T07:04:59.322Z,27.70
2023-05-08T07:10:01.152Z,26.60
2023-05-08T07:15:13.821Z,26.60
2023-05-08T07:20:20.402Z,28.20
2023-05-08T07:25:22.301Z,30.20
2023-05-08T07:30:24.162Z,27.60
2023-05-08T07:35:26.124Z,28.30
2023-05-08T07:40:27.919Z,29.10
2023-05-08T07:45:29.898Z,31.10
2023-05-08T07:50:31.751Z,32.40
2023-05-08T07:55:33.787Z,28.50
2023-05-08T08:00:36.606Z,29.60
2023-05-08T08:05:38.374Z,29.70
2023-05-08T08:10:40.353Z,28.70
2023-05-08T08:15:42.284Z,31.30
2023-05-08T08:20:44.258Z,30.20
2023-05-08T08:25:45.991Z,28.90
2023-05-08T08:30:47.735Z,31.90
2023-05-08T08:35:49.725Z,31.20
2023-05-08T08:40:53.267Z,31.30
2023-05-08T08:45:55.274Z,30.40
2023-05-08T08:51:03.357Z,28.90
2023-05-08T08:56:08.552Z,27.50
2023-05-08T09:01:16.481Z,27.00
2023-05-08T09:06:19.603Z,26.20
2023-05-08T09:11:21.512Z,26.00
2023-05-08T09:16:24.459Z,24.30
2023-05-08T09:21:28.538Z,24.90
2023-05-08T09:26:39.004Z,27.00
2023-05-08T09:31:43.443Z,27.60
2023-05-08T09:36:45.721Z,28.40
2023-05-08T09:41:58.768Z,29.30
2023-05-08T09:47:11.424Z,28.90
2023-05-08T09:52:16.214Z,29.20
2023-05-08T09:57:18.063Z,29.10
2023-05-08T10:02:21.088Z,28.40
2023-05-08T10:07:34.101Z,28.60
2023-05-08T10:12:38.035Z,28.30
2023-05-08T10:18:02.934Z,24.20
2023-05-08T10:23:11.406Z,22.20
2023-05-08T10:28:34.961Z,20.00
2023-05-08T10:33:41.573Z,19.70
2023-05-08T10:38:43.981Z,19.50
2023-05-08T10:43:45.925Z,18.70
2023-05-08T10:49:00.903Z,18.40
2023-05-08T10:54:11.008Z,17.10
2023-05-08T10:59:19.929Z,17.50
2023-05-08T11:04:25.711Z,18.30
2023-05-08T11:09:30.339Z,18.00
2023-05-08T11:14:33.606Z,18.50
2023-05-08T11:19:36.197Z,18.00
2023-05-08T11:24:39.316Z,18.30
2023-05-08T11:29:41.273Z,18.40
2023-05-08T11:34:43.451Z,18.40
2023-05-08T11:39:46.157Z,18.40
2023-05-08T11:44:48.103Z,17.20
2023-05-08T11:49:49.871Z,17.20
2023-05-08T11:54:51.735Z,17.50
2023-05-08T11:59:53.453Z,17.00
2023-05-08T12:04:55.374Z,17.10
2023-05-08T12:09:57.303Z,17.00
2023-05-08T12:14:59.095Z,17.00
2023-05-08T12:20:09.974Z,17.30
2023-05-08T12:25:12.987Z,17.40
2023-05-08T12:30:16.848Z,17.00
2023-05-08T12:35:19.792Z,16.90
2023-05-08T12:40:32.876Z,16.80
2023-05-08T12:45:39.256Z,17.50
2023-05-08T12:50:42.618Z,17.40
2023-05-08T12:55:58.527Z,17.80
2023-05-08T13:01:10.026Z,17.90
2023-05-08T13:06:21.936Z,17.90
2023-05-08T13:11:31.622Z,17.40
2023-05-08T13:16:45.590Z,17.20
2023-05-08T13:21:47.893Z,17.30
2023-05-08T13:26:49.802Z,16.90
2023-05-08T13:31:51.576Z,17.00
2023-05-08T13:36:53.528Z,17.30
2023-05-08T13:41:56.372Z,17.10
2023-05-08T13:46:58.319Z,17.20
2023-05-08T13:52:00.126Z,17.30
2023-05-08T13:57:02.677Z,17.20
2023-05-08T14:02:05.581Z,17.10
2023-05-08T14:07:07.495Z,17.10
2023-05-08T14:12:09.300Z,17.00
2023-05-08T14:17:11.372Z,16.80
2023-05-08T14:22:13.165Z,16.90
2023-05-08T14:27:14.997Z,16.80
2023-05-08T14:32:16.873Z,16.40
2023-05-08T14:37:18.681Z,16.40
2023-05-08T14:42:23.705Z,16.60
2023-05-08T14:47:25.907Z,16.60
2023-05-08T14:52:27.777Z,16.70
2023-05-08T14:57:29.513Z,16.80
2023-05-08T15:02:31.306Z,16.70
2023-05-08T15:07:33.325Z,16.70
2023-05-08T15:12:35.111Z,16.70
2023-05-08T15:17:36.918Z,16.40
2023-05-08T15:22:38.951Z,16.40
2023-05-08T15:27:41.788Z,16.20
2023-05-08T15:32:43.612Z,16.10
2023-05-08T15:37:45.698Z,16.10
2023-05-08T15:42:47.736Z,16.00
2023-05-08T15:47:49.591Z,15.90
2023-05-08T15:52:51.483Z,15.90
2023-05-08T15:57:53.498Z,16.00
2023-05-08T16:02:55.374Z,15.90
2023-05-08T16:07:57.401Z,16.00
2023-05-08T16:12:59.395Z,15.80
2023-05-08T16:18:01.278Z,15.80
2023-05-08T16:23:03.309Z,15.70
2023-05-08T16:28:05.069Z,15.60
2023-05-08T16:33:06.825Z,15.60
2023-05-08T16:38:08.712Z,15.70
2023-05-08T16:43:11.328Z,15.50
2023-05-08T16:48:13.145Z,15.30
2023-05-08T16:53:15.057Z,15.30
2023-05-08T16:58:16.894Z,15.20
2023-05-08T17:03:18.853Z,15.20
2023-05-08T17:08:20.697Z,15.20
2023-05-08T17:13:22.573Z,15.10
2023-05-08T17:18:24.489Z,14.90
2023-05-08T17:23:26.247Z,14.90
2023-05-08T17:28:27.966Z,14.80
2023-05-08T17:33:29.991Z,14.70
2023-05-08T17:38:31.872Z,14.50
2023-05-08T17:43:35.548Z,14.30
2023-05-08T17:48:37.277Z,14.20
2023-05-08T17:53:39.538Z,14.00
2023-05-08T17:58:41.418Z,13.90
2023-05-08T18:03:45.015Z,13.70
2023-05-08T18:08:47.361Z,13.40
2023-05-08T18:13:50.693Z,12.70
2023-05-08T18:18:52.469Z,12.30
2023-05-08T18:23:54.428Z,11.90
2023-05-08T18:28:56.146Z,11.50
2023-05-08T18:33:57.977Z,11.10
2023-05-08T18:39:00.093Z,10.80
2023-05-08T18:44:05.083Z,10.60
2023-05-08T18:49:06.781Z,10.40
2023-05-08T18:54:08.544Z,10.30
2023-05-08T18:59:10.451Z,10.00
2023-05-08T19:04:12.260Z,9.90
2023-05-08T19:09:14.047Z,9.70
2023-05-08T19:14:15.918Z,9.60
2023-05-08T19:19:17.609Z,9.40
2023-05-08T19:24:20.886Z,9.30
2023-05-08T19:29:23.757Z,9.20
2023-05-08T19:34:25.491Z,9.20
2023-05-08T19:39:27.365Z,9.10
2023-05-08T19:44:30.165Z,9.10
2023-05-08T19:49:31.888Z,8.90
2023-05-08T19:54:33.616Z,8.80
2023-05-08T19:59:35.469Z,8.70
2023-05-08T20:05:00.819Z,8.50
2023-05-08T20:09:58.929Z,8.40
2023-05-08T20:15:00.751Z,8.30
2023-05-08T20:20:02.541Z,8.20
2023-05-08T20:25:05.234Z,8.00
2023-05-08T20:30:07.735Z,8.00
2023-05-08T20:35:09.702Z,7.80
2023-05-08T20:40:12.065Z,7.80
2023-05-08T20:45:14.109Z,7.70
2023-05-08T20:50:16.442Z,7.70
2023-05-08T20:55:18.523Z,7.60
2023-05-08T21:00:21.307Z,7.70
2023-05-08T21:05:23.053Z,7.60
2023-05-08T21:10:26.096Z,7.50
2023-05-08T21:15:27.843Z,7.30
2023-05-08T21:20:29.560Z,7.30
2023-05-08T21:25:31.650Z,7.20
2023-05-08T21:30:33.545Z,7.20
2023-05-08T21:35:35.344Z,7.10
2023-05-08T21:40:37.116Z,7.00
2023-05-08T21:45:39.069Z,7.40
2023-05-08T21:50:40.817Z,7.00
2023-05-08T21:55:42.534Z,6.80
2023-05-08T22:00:46.058Z,6.70
2023-05-08T22:05:47.780Z,6.60
2023-05-08T22:10:50.200Z,6.40
2023-05-08T22:15:51.930Z,6.40
2023-05-08T22:20:55.085Z,6.60
2023-05-08T22:25:56.898Z,6.60
2023-05-08T22:30:58.670Z,6.70
2023-05-08T22:36:01.023Z,6.70
2023-05-08T22:41:03.951Z,6.60
2023-05-08T22:46:06.564Z,6.50
2023-05-08T22:51:08.464Z,6.40
2023-05-08T22:56:11.661Z,6.10
2023-05-08T23:01:15.906Z,5.90
2023-05-08T23:06:18.374Z,5.80
2023-05-08T23:11:21.280Z,5.60
2023-05-08T23:16:23.163Z,5.60
2023-05-08T23:21:24.985Z,5.30
2023-05-08T23:26:26.808Z,5.30
2023-05-08T23:31:28.595Z,5.10
2023-05-08T23:36:30.458Z,5.00
2023-05-08T23:41:32.324Z,4.80
2023-05-08T23:46:34.193Z,4.80
2023-05-08T23:51:36.091Z,4.70
2023-05-08T23:56:37.867Z,4.60
